createdAt,value
2022-11-08T00:04:29.238Z,97.88
2022-11-08T00:10:49.995Z,98.59
2022-11-08T00:16:52.076Z,98.67
2022-11-08T00:22:55.589Z,99.39
2022-11-08T00:29:01.950Z,98.59
2022-11-08T00:35:06.699Z,97.99
2022-11-08T00:41:09.065Z,99.35
2022-11-08T00:47:11.275Z,99.19
2022-11-08T00:53:13.144Z,99.04
2022-11-08T00:59:18.682Z,99.30
2022-11-08T01:05:20.569Z,97.75
2022-11-08T01:11:24.939Z,97.80
2022-11-08T01:17:26.947Z,98.85
2022-11-08T01:23:31.332Z,98.43
2022-11-08T01:29:33.688Z,99.44
2022-11-08T01:35:37.176Z,100.00
2022-11-08T01:41:40.291Z,100.00
2022-11-08T01:47:46.188Z,100.00
2022-11-08T01:53:49.149Z,100.00
2022-11-08T01:59:54.351Z,98.76
2022-11-08T02:05:57.064Z,96.69
2022-11-08T02:11:59.643Z,96.96
2022-11-08T02:18:02.050Z,96.80
2022-11-08T02:24:11.280Z,96.27
2022-11-08T02:30:13.384Z,95.23
2022-11-08T02:36:21.208Z,96.71
2022-11-08T02:42:23.143Z,98.21
2022-11-08T02:48:26.290Z,98.06
2022-11-08T02:54:28.633Z,98.80
2022-11-08T03:00:31.162Z,98.53
2022-11-08T03:06:33.111Z,99.32
2022-11-08T03:12:45.342Z,100.00
2022-11-08T03:31:46.644Z,100.00
2022-11-08T03:37:53.190Z,100.00
2022-11-08T03:43:55.070Z,100.00
2022-11-08T03:49:56.954Z,100.00
2022-11-08T03:56:02.015Z,100.00
2022-11-08T04:02:04.172Z,100.00
2022-11-08T04:08:06.519Z,100.00
2022-11-08T04:14:28.589Z,100.00
2022-11-08T04:20:49.665Z,100.00
2022-11-08T04:27:04.650Z,100.00
2022-11-08T04:39:24.636Z,100.00
2022-11-08T04:45:26.564Z,100.00
2022-11-08T04:51:33.462Z,100.00
2022-11-08T04:57:39.723Z,100.00
2022-11-08T05:03:52.244Z,100.00
2022-11-08T05:10:07.134Z,100.00
2022-11-08T05:16:20.704Z,100.00
2022-11-08T05:22:54.133Z,100.00
2022-11-08T05:28:56.188Z,100.00
2022-11-08T05:34:58.120Z,100.00
2022-11-08T05:41:11.755Z,100.00
2022-11-08T05:47:17.299Z,100.00
2022-11-08T05:53:20.163Z,100.00
2022-11-08T05:59:30.524Z,100.00
2022-11-08T06:05:35.447Z,100.00
2022-11-08T06:11:37.566Z,100.00
2022-11-08T06:17:39.475Z,100.00
2022-11-08T06:23:41.670Z,100.00
2022-11-08T06:29:43.644Z,100.00
2022-11-08T06:35:45.795Z,100.00
2022-11-08T06:41:47.700Z,100.00
2022-11-08T06:47:49.597Z,100.00
2022-11-08T06:53:51.601Z,100.00
2022-11-08T06:59:53.562Z,100.00
2022-11-08T07:05:55.482Z,100.00
2022-11-08T07:11:57.509Z,100.00
2022-11-08T07:18:09.402Z,100.00
2022-11-08T07:25:04.111Z,100.00
2022-11-08T07:31:06.858Z,100.00
2022-11-08T07:37:08.786Z,100.00
2022-11-08T07:43:12.648Z,100.00
2022-11-08T07:49:24.930Z,100.00
2022-11-08T07:55:27.859Z,100.00
2022-11-08T08:01:29.847Z,100.00
2022-11-08T08:07:31.884Z,100.00
2022-11-08T08:13:33.812Z,100.00
2022-11-08T08:19:35.733Z,100.00
2022-11-08T08:25:37.741Z,99.54
2022-11-08T08:31:39.625Z,98.30
2022-11-08T08:37:41.581Z,98.15
2022-11-08T08:43:43.434Z,97.58
2022-11-08T08:49:45.346Z,97.43
2022-11-08T08:55:54.039Z,95.16
2022-11-08T09:01:56.099Z,95.61
2022-11-08T09:07:58.161Z,95.69
2022-11-08T09:14:00.110Z,93.44
2022-11-08T09:20:02.120Z,93.05
2022-11-08T09:26:06.303Z,91.22
2022-11-08T09:32:08.278Z,87.96
2022-11-08T09:45:09.900Z,83.04
2022-11-08T09:51:18.935Z,83.33
2022-11-08T09:57:32.914Z,82.80
2022-11-08T10:03:34.880Z,82.17
2022-11-08T10:10:27.856Z,82.38
2022-11-08T10:17:12.374Z,82.62
2022-11-08T10:23:47.930Z,82.50
2022-11-08T10:29:57.581Z,82.87
2022-11-08T10:36:21.940Z,82.44
2022-11-08T10:42:45.315Z,82.81
2022-11-08T10:48:47.273Z,81.96
2022-11-08T10:54:55.445Z,81.50
2022-11-08T11:01:21.864Z,79.32
2022-11-08T11:07:36.542Z,78.48
2022-11-08T11:13:38.559Z,74.41
2022-11-08T11:19:51.832Z,72.57
2022-11-08T11:25:53.803Z,71.82
2022-11-08T11:32:19.167Z,69.21
2022-11-08T11:38:49.084Z,69.87
2022-11-08T11:44:56.722Z,70.69
2022-11-08T11:50:59.186Z,69.24
2022-11-08T11:57:10.528Z,68.32
2022-11-08T12:03:32.798Z,64.47
2022-11-08T12:10:14.628Z,63.27
2022-11-08T12:16:33.891Z,57.78
2022-11-08T12:23:09.180Z,59.57
2022-11-08T12:37:40.784Z,53.53
2022-11-08T12:44:09.648Z,54.27
2022-11-08T12:51:02.076Z,53.77
2022-11-08T12:57:14.325Z,54.26
2022-11-08T13:03:47.052Z,54.63
2022-11-08T13:10:04.375Z,56.25
2022-11-08T13:16:16.295Z,57.27
2022-11-08T13:22:31.093Z,55.15
2022-11-08T13:28:44.820Z,58.65
2022-11-08T13:35:17.158Z,56.30
2022-11-08T13:41:21.374Z,55.95
2022-11-08T13:47:43.443Z,57.29
2022-11-08T13:53:54.314Z,57.00
2022-11-08T14:00:04.806Z,57.73
2022-11-08T14:06:51.301Z,60.28
2022-11-08T14:13:26.351Z,60.73
2022-11-08T14:19:35.563Z,63.01
2022-11-08T14:25:39.785Z,62.52
2022-11-08T14:31:41.815Z,65.37
2022-11-08T14:37:44.715Z,63.90
2022-11-08T14:43:48.513Z,64.62
2022-11-08T14:56:11.046Z,64.51
2022-11-08T15:02:13.205Z,66.91
2022-11-08T15:08:31.623Z,67.54
2022-11-08T15:14:36.796Z,69.09
2022-11-08T15:20:52.628Z,69.35
2022-11-08T15:27:12.678Z,69.97
2022-11-08T15:34:25.894Z,71.87
2022-11-08T15:40:31.930Z,73.06
2022-11-08T15:46:40.491Z,73.08
2022-11-08T15:52:50.919Z,73.48
2022-11-08T15:58:52.892Z,72.57
2022-11-08T16:04:54.810Z,73.17
2022-11-08T16:11:01.277Z,74.02
2022-11-08T16:17:03.389Z,74.01
2022-11-08T16:23:09.874Z,74.94
2022-11-08T16:29:24.738Z,74.78
2022-11-08T16:35:27.043Z,75.10
2022-11-08T16:41:29.029Z,75.21
2022-11-08T16:47:32.605Z,75.38
2022-11-08T16:53:36.829Z,74.65
2022-11-08T16:59:38.780Z,75.04
2022-11-08T17:05:41.454Z,75.45
2022-11-08T17:11:43.371Z,75.36
2022-11-08T17:17:46.319Z,75.12
2022-11-08T17:23:57.059Z,73.92
2022-11-08T17:30:00.214Z,72.13
2022-11-08T17:36:21.832Z,70.72
2022-11-08T17:42:24.140Z,72.34
2022-11-08T17:48:26.124Z,72.73
2022-11-08T17:54:28.191Z,73.00
2022-11-08T18:00:30.268Z,73.26
2022-11-08T18:06:32.526Z,73.83
2022-11-08T18:12:34.538Z,73.41
2022-11-08T18:18:37.396Z,73.60
2022-11-08T18:24:39.336Z,74.06
2022-11-08T18:30:46.591Z,73.56
2022-11-08T18:43:20.573Z,73.98
2022-11-08T18:49:22.924Z,74.14
2022-11-08T18:55:24.821Z,75.02
2022-11-08T19:01:26.736Z,74.48
2022-11-08T19:07:29.668Z,74.79
2022-11-08T19:13:33.809Z,74.59
2022-11-08T19:19:37.122Z,74.87
2022-11-08T19:25:39.020Z,74.62
2022-11-08T19:31:42.774Z,74.96
2022-11-08T19:37:45.691Z,75.51
2022-11-08T19:44:07.393Z,75.49
2022-11-08T19:50:09.381Z,74.99
2022-11-08T19:56:17.739Z,75.44
2022-11-08T20:02:19.923Z,74.67
2022-11-08T20:08:22.142Z,74.79
2022-11-08T20:14:24.107Z,74.83
2022-11-08T20:20:26.124Z,74.14
2022-11-08T20:26:28.121Z,74.14
2022-11-08T20:32:30.109Z,74.47
2022-11-08T20:38:32.984Z,74.56
2022-11-08T20:44:34.993Z,74.43
2022-11-08T20:50:39.140Z,74.73
2022-11-08T20:56:41.049Z,74.64
2022-11-08T21:02:42.991Z,74.56
2022-11-08T21:09:09.900Z,75.09
2022-11-08T21:15:08.464Z,75.16
2022-11-08T21:21:19.035Z,75.35
2022-11-08T21:27:23.597Z,75.03
2022-11-08T21:33:27.837Z,76.03
2022-11-08T21:39:29.723Z,76.42
2022-11-08T21:45:31.619Z,76.41
2022-11-08T21:51:33.606Z,76.14
2022-11-08T21:57:36.178Z,76.56
2022-11-08T22:03:47.308Z,77.26
2022-11-08T22:09:50.417Z,77.24
2022-11-08T22:15:52.338Z,77.63
2022-11-08T22:28:10.562Z,78.48
2022-11-08T22:34:12.854Z,77.90
2022-11-08T22:40:16.374Z,78.12
2022-11-08T22:46:18.778Z,78.02
2022-11-08T22:52:20.699Z,75.96
2022-11-08T22:58:24.040Z,77.12
2022-11-08T23:04:25.910Z,77.24
2022-11-08T23:10:28.059Z,77.52
2022-11-08T23:16:36.052Z,76.90
2022-11-08T23:22:56.761Z,75.67
2022-11-08T23:29:17.039Z,74.57
2022-11-08T23:35:21.032Z,76.35
2022-11-08T23:41:42.395Z,77.24
2022-11-08T23:47:44.504Z,76.45
2022-11-08T23:53:46.421Z,76.70
2022-11-08T23:59:48.358Z,75.69
